createdAt,value
2019-03-20T00:00:59.313Z,100367.36
2019-03-20T00:03:30.613Z,100364.90
2019-03-20T00:06:01.872Z,100364.19
2019-03-20T00:08:33.261Z,100367.62
2019-03-20T00:11:04.609Z,100365.63
2019-03-20T00:13:36.006Z,100365.95
2019-03-20T00:16:07.362Z,100363.48
2019-03-20T00:18:38.740Z,100366.43
2019-03-20T00:21:10.102Z,100369.47
2019-03-20T00:23:41.501Z,100357.87
2019-03-20T00:26:13.356Z,100352.40
2019-03-20T00:28:44.654Z,100353.30
2019-03-20T00:31:16.095Z,100354.09
2019-03-20T00:33:47.359Z,100349.45
2019-03-20T00:36:20.058Z,100357.87
2019-03-20T00:38:51.464Z,100361.73
2019-03-20T00:41:22.748Z,100355.48
2019-03-20T00:43:55.014Z,100353.33
2019-03-20T00:46:26.413Z,100350.53
2019-03-20T00:48:57.939Z,100346.11
2019-03-20T00:51:29.205Z,100346.78
2019-03-20T00:54:00.640Z,100344.84
2019-03-20T00:56:32.095Z,100338.16
2019-03-20T00:59:03.435Z,100334.05
2019-03-20T01:01:34.768Z,100337.06
2019-03-20T01:04:06.009Z,100338.03
2019-03-20T01:06:37.279Z,100336.56
2019-03-20T01:09:08.574Z,100339.05
2019-03-20T01:11:39.820Z,100334.94
2019-03-20T01:14:11.158Z,100336.33
2019-03-20T01:16:42.564Z,100337.38
2019-03-20T01:19:13.976Z,100333.90
2019-03-20T01:21:45.401Z,100331.06
2019-03-20T01:24:16.815Z,100335.00
2019-03-20T01:26:48.100Z,100328.73
2019-03-20T01:29:19.502Z,100329.83
2019-03-20T01:31:50.915Z,100328.88
2019-03-20T01:34:22.186Z,100331.50
2019-03-20T01:36:53.503Z,100327.45
2019-03-20T01:39:24.847Z,100327.02
2019-03-20T01:41:56.226Z,100327.22
2019-03-20T01:44:27.694Z,100328.87
2019-03-20T01:47:00.268Z,100328.02
2019-03-20T01:49:31.645Z,100325.19
2019-03-20T01:52:03.020Z,100329.38
2019-03-20T01:54:34.487Z,100329.42
2019-03-20T01:57:06.413Z,100330.05
2019-03-20T01:59:37.794Z,100330.66
2019-03-20T02:02:09.007Z,100335.09
2019-03-20T02:04:40.531Z,100336.32
2019-03-20T02:07:11.909Z,100329.67
2019-03-20T02:09:43.283Z,100331.45
2019-03-20T02:12:14.606Z,100334.31
2019-03-20T02:14:46.025Z,100336.67
2019-03-20T02:17:17.468Z,100344.92
2019-03-20T02:19:48.886Z,100340.76
2019-03-20T02:22:20.731Z,100337.86
2019-03-20T02:24:51.932Z,100335.47
2019-03-20T02:27:23.294Z,100334.69
2019-03-20T02:29:54.551Z,100338.86
2019-03-20T02:32:25.910Z,100335.33
2019-03-20T02:34:57.355Z,100343.89
2019-03-20T02:37:28.715Z,100339.26
2019-03-20T02:39:59.983Z,100338.63
2019-03-20T02:42:31.268Z,100346.09
2019-03-20T02:45:02.576Z,100341.02
2019-03-20T02:47:34.975Z,100341.78
2019-03-20T02:50:08.667Z,100350.41
2019-03-20T02:52:40.132Z,100346.84
2019-03-20T02:55:12.286Z,100346.43
2019-03-20T02:57:43.596Z,100353.86
2019-03-20T03:00:19.840Z,100354.53
2019-03-20T03:02:51.110Z,100356.56
2019-03-20T03:05:22.387Z,100359.11
2019-03-20T03:07:53.814Z,100359.11
2019-03-20T03:10:25.219Z,100362.70
2019-03-20T03:12:56.543Z,100362.70
2019-03-20T03:15:27.914Z,100365.15
2019-03-20T03:17:59.324Z,100360.58
2019-03-20T03:20:30.665Z,100359.72
2019-03-20T03:23:01.960Z,100367.11
2019-03-20T03:25:33.249Z,100367.97
2019-03-20T03:28:04.648Z,100368.59
2019-03-20T03:30:35.976Z,100369.84
2019-03-20T03:33:07.355Z,100375.11
2019-03-20T03:35:38.839Z,100373.09
2019-03-20T03:38:10.177Z,100379.35
2019-03-20T03:40:41.500Z,100382.86
2019-03-20T03:43:12.857Z,100386.25
2019-03-20T03:45:44.298Z,100386.98
2019-03-20T03:48:15.637Z,100390.70
2019-03-20T03:50:48.417Z,100385.00
2019-03-20T03:53:20.166Z,100387.77
2019-03-20T03:55:51.538Z,100384.11
2019-03-20T03:58:22.866Z,100387.96
2019-03-20T04:00:54.217Z,100389.04
2019-03-20T04:03:25.638Z,100386.70
2019-03-20T04:05:57.017Z,100390.62
2019-03-20T04:08:28.298Z,100389.69
2019-03-20T04:10:59.677Z,100385.16
2019-03-20T04:13:30.900Z,100390.60
2019-03-20T04:16:02.309Z,100399.97
2019-03-20T04:18:33.858Z,100397.11
2019-03-20T04:21:05.153Z,100409.91
2019-03-20T04:23:36.509Z,100409.91
2019-03-20T04:26:07.840Z,100403.94
2019-03-20T04:28:39.216Z,100410.14
2019-03-20T04:31:10.643Z,100409.36
2019-03-20T04:33:41.923Z,100407.63
2019-03-20T04:36:13.361Z,100405.08
2019-03-20T04:38:44.869Z,100399.64
2019-03-20T04:41:16.380Z,100404.71
2019-03-20T04:43:47.732Z,100403.91
2019-03-20T04:46:19.160Z,100408.15
2019-03-20T04:48:50.426Z,100412.91
2019-03-20T04:51:21.788Z,100415.80
2019-03-20T04:53:53.228Z,100423.42
2019-03-20T04:56:24.552Z,100421.55
2019-03-20T04:58:55.900Z,100427.00
2019-03-20T05:01:27.322Z,100427.00
2019-03-20T05:03:58.508Z,100429.14
2019-03-20T05:06:29.831Z,100428.03
2019-03-20T05:09:01.285Z,100425.02
2019-03-20T05:11:32.904Z,100428.18
2019-03-20T05:14:04.344Z,100429.22
2019-03-20T05:16:35.693Z,100430.41
2019-03-20T05:19:06.973Z,100434.40
2019-03-20T05:21:38.281Z,100431.92
2019-03-20T05:24:09.622Z,100433.58
2019-03-20T05:26:41.028Z,100441.47
2019-03-20T05:29:12.368Z,100436.63
2019-03-20T05:31:44.689Z,100441.42
2019-03-20T05:34:16.027Z,100441.81
2019-03-20T05:36:47.361Z,100434.23
2019-03-20T05:39:18.672Z,100436.33
2019-03-20T05:41:50.083Z,100441.89
2019-03-20T05:44:21.455Z,100440.36
2019-03-20T05:46:52.786Z,100438.55
2019-03-20T05:49:24.209Z,100450.05
2019-03-20T05:51:55.456Z,100446.22
2019-03-20T05:54:26.881Z,100448.41
2019-03-20T05:56:58.352Z,100442.28
2019-03-20T05:59:29.732Z,100446.98
2019-03-20T06:02:01.043Z,100447.13
2019-03-20T06:04:32.507Z,100438.59
2019-03-20T06:07:03.944Z,100438.59
2019-03-20T06:09:35.315Z,100443.70
2019-03-20T06:12:06.693Z,100450.62
2019-03-20T06:14:38.102Z,100449.72
2019-03-20T06:17:09.364Z,100455.19
2019-03-20T06:19:40.828Z,100455.16
2019-03-20T06:22:12.222Z,100461.73
2019-03-20T06:24:43.671Z,100457.99
2019-03-20T06:27:15.035Z,100455.97
2019-03-20T06:29:46.465Z,100454.88
2019-03-20T06:32:17.866Z,100450.91
2019-03-20T06:34:49.261Z,100448.74
2019-03-20T06:37:20.709Z,100449.56
2019-03-20T06:39:53.386Z,100445.55
2019-03-20T06:42:25.200Z,100446.11
2019-03-20T06:44:56.557Z,100441.81
2019-03-20T06:47:27.941Z,100440.33
2019-03-20T06:50:00.273Z,100448.30
2019-03-20T06:52:32.392Z,100441.53
2019-03-20T06:55:04.138Z,100441.30
2019-03-20T06:57:35.493Z,100445.12
2019-03-20T07:00:39.981Z,100448.73
2019-03-20T07:03:29.232Z,100443.37
2019-03-20T07:06:22.014Z,100441.39
2019-03-20T07:09:17.965Z,100441.59
2019-03-20T07:11:49.319Z,100440.96
2019-03-20T07:14:20.730Z,100440.96
2019-03-20T07:16:52.072Z,100438.28
2019-03-20T07:19:23.454Z,100440.65
2019-03-20T07:21:54.985Z,100438.08
2019-03-20T07:24:26.376Z,100443.09
2019-03-20T07:26:57.744Z,100449.38
2019-03-20T07:29:29.238Z,100452.80
2019-03-20T07:32:00.668Z,100457.22
2019-03-20T07:34:32.054Z,100451.91
2019-03-20T07:37:03.384Z,100451.52
2019-03-20T07:39:34.769Z,100452.84
2019-03-20T07:42:06.126Z,100450.61
2019-03-20T07:44:37.584Z,100444.45
2019-03-20T07:47:08.940Z,100446.56
2019-03-20T07:49:40.295Z,100452.16
2019-03-20T07:52:11.665Z,100450.93
2019-03-20T07:54:43.102Z,100448.52
2019-03-20T07:57:14.493Z,100446.67
2019-03-20T07:59:45.815Z,100444.17
2019-03-20T08:02:17.163Z,100440.69
2019-03-20T08:04:48.519Z,100446.42
2019-03-20T08:07:19.786Z,100445.53
2019-03-20T08:09:51.030Z,100441.45
2019-03-20T08:12:22.460Z,100440.23
2019-03-20T08:14:53.971Z,100433.28
2019-03-20T08:17:25.301Z,100431.11
2019-03-20T08:19:56.561Z,100433.14
2019-03-20T08:22:27.959Z,100435.55
2019-03-20T08:24:59.404Z,100427.91
2019-03-20T08:27:30.809Z,100429.38
2019-03-20T08:30:02.140Z,100427.41
2019-03-20T08:32:33.476Z,100426.37
2019-03-20T08:35:07.455Z,100428.21
2019-03-20T08:37:38.990Z,100429.92
2019-03-20T08:40:15.508Z,100429.06
2019-03-20T08:42:46.849Z,100427.02
2019-03-20T08:45:19.463Z,100416.53
2019-03-20T08:47:50.860Z,100416.79
2019-03-20T08:50:25.990Z,100423.65
2019-03-20T08:52:57.382Z,100422.51
2019-03-20T08:55:28.753Z,100422.55
2019-03-20T08:58:00.190Z,100421.58
2019-03-20T09:00:31.490Z,100429.14
2019-03-20T09:03:02.871Z,100419.05
2019-03-20T09:05:34.355Z,100427.80
2019-03-20T09:08:05.747Z,100422.24
2019-03-20T09:10:37.091Z,100426.75
2019-03-20T09:13:08.493Z,100419.09
2019-03-20T09:15:39.865Z,100431.84
2019-03-20T09:18:11.257Z,100431.84
2019-03-20T09:20:42.633Z,100424.13
2019-03-20T09:23:14.129Z,100421.77
2019-03-20T09:25:45.412Z,100419.41
2019-03-20T09:28:16.754Z,100421.11
2019-03-20T09:30:48.071Z,100431.50
2019-03-20T09:33:19.529Z,100423.67
2019-03-20T09:35:50.954Z,100422.78
2019-03-20T09:38:22.292Z,100423.80
2019-03-20T09:40:53.653Z,100420.19
2019-03-20T09:43:25.084Z,100421.17
2019-03-20T09:45:57.128Z,100419.29
2019-03-20T09:48:28.822Z,100421.80
2019-03-20T09:51:00.284Z,100416.28
2019-03-20T09:53:31.625Z,100410.54
2019-03-20T09:56:03.203Z,100415.41
2019-03-20T09:58:34.633Z,100423.67
2019-03-20T10:01:06.029Z,100425.48
2019-03-20T10:03:37.296Z,100429.79
2019-03-20T10:06:08.627Z,100422.27
2019-03-20T10:08:39.925Z,100428.48
2019-03-20T10:11:11.209Z,100424.80
2019-03-20T10:13:42.476Z,100417.31
2019-03-20T10:16:13.866Z,100420.45
2019-03-20T10:18:45.227Z,100418.05
2019-03-20T10:21:16.512Z,100419.40
2019-03-20T10:23:47.779Z,100420.12
2019-03-20T10:26:19.106Z,100409.29
2019-03-20T10:28:50.486Z,100413.11
2019-03-20T10:31:21.872Z,100412.71
2019-03-20T10:33:53.272Z,100412.83
2019-03-20T10:36:24.702Z,100406.89
2019-03-20T10:39:05.932Z,100400.77
2019-03-20T10:41:29.205Z,100399.81
2019-03-20T10:44:00.649Z,100400.38
2019-03-20T10:46:31.970Z,100401.08
2019-03-20T10:49:03.332Z,100400.33
2019-03-20T10:51:34.613Z,100391.19
2019-03-20T10:54:07.279Z,100393.80
2019-03-20T10:56:40.619Z,100396.98
2019-03-20T10:59:11.906Z,100387.92
2019-03-20T11:01:43.372Z,100389.86
2019-03-20T11:04:14.709Z,100391.12
2019-03-20T11:06:46.006Z,100386.37
2019-03-20T11:09:18.701Z,100386.42
2019-03-20T11:11:51.373Z,100384.34
2019-03-20T11:14:22.893Z,100377.78
2019-03-20T11:16:54.393Z,100378.86
2019-03-20T11:19:25.721Z,100380.14
2019-03-20T11:21:57.092Z,100381.89
2019-03-20T11:24:28.340Z,100375.03
2019-03-20T11:26:59.799Z,100371.70
2019-03-20T11:29:31.231Z,100368.44
2019-03-20T11:32:02.490Z,100362.98
2019-03-20T11:34:33.738Z,100357.91
2019-03-20T11:37:05.136Z,100360.30
2019-03-20T11:39:36.535Z,100358.20
2019-03-20T11:42:07.867Z,100357.41
2019-03-20T11:44:39.271Z,100349.48
2019-03-20T11:47:10.638Z,100347.45
2019-03-20T11:49:43.101Z,100340.95
2019-03-20T11:52:14.378Z,100343.78
2019-03-20T11:54:45.811Z,100338.75
2019-03-20T11:57:17.156Z,100344.19
2019-03-20T11:59:48.470Z,100342.33
2019-03-20T12:02:27.983Z,100340.06
2019-03-20T12:04:54.076Z,100342.19
2019-03-20T12:07:25.711Z,100336.34
2019-03-20T12:09:58.845Z,100329.88
2019-03-20T12:12:30.333Z,100330.97
2019-03-20T12:15:01.685Z,100329.54
2019-03-20T12:17:32.961Z,100326.61
2019-03-20T12:20:07.805Z,100324.81
2019-03-20T12:22:39.201Z,100324.85
2019-03-20T12:25:13.573Z,100324.64
2019-03-20T12:27:44.996Z,100322.58
2019-03-20T12:30:20.576Z,100315.44
2019-03-20T12:32:51.972Z,100317.38
2019-03-20T12:35:24.688Z,100318.92
2019-03-20T12:37:56.025Z,100317.34
2019-03-20T12:40:31.632Z,100311.59
2019-03-20T12:43:03.027Z,100314.73
2019-03-20T12:45:38.416Z,100306.50
2019-03-20T12:48:11.423Z,100312.97
2019-03-20T12:50:44.072Z,100313.17
2019-03-20T12:53:30.709Z,100312.26
2019-03-20T12:56:02.077Z,100312.16
2019-03-20T12:58:33.333Z,100314.77
2019-03-20T13:01:04.779Z,100310.72
2019-03-20T13:03:36.205Z,100312.54
2019-03-20T13:06:07.562Z,100311.63
2019-03-20T13:08:38.879Z,100310.98
2019-03-20T13:11:10.340Z,100305.95
2019-03-20T13:13:41.708Z,100302.57
2019-03-20T13:16:13.043Z,100299.18
2019-03-20T13:18:44.442Z,100299.95
2019-03-20T13:21:15.762Z,100294.75
2019-03-20T13:23:47.146Z,100294.32
2019-03-20T13:26:18.525Z,100290.06
2019-03-20T13:28:49.856Z,100289.35
2019-03-20T13:31:23.355Z,100285.66
2019-03-20T13:33:54.616Z,100276.30
2019-03-20T13:36:25.983Z,100281.03
2019-03-20T13:38:57.405Z,100271.40
2019-03-20T13:41:28.775Z,100271.37
2019-03-20T13:44:00.023Z,100267.98
2019-03-20T13:46:31.428Z,100265.22
2019-03-20T13:49:02.772Z,100265.20
2019-03-20T13:51:34.123Z,100266.27
2019-03-20T13:54:05.674Z,100258.91
2019-03-20T13:56:36.980Z,100263.19
2019-03-20T13:59:08.299Z,100262.78
2019-03-20T14:01:39.687Z,100266.11
2019-03-20T14:04:10.952Z,100268.34
2019-03-20T14:06:42.280Z,100268.39
2019-03-20T14:09:13.712Z,100266.67
2019-03-20T14:11:45.128Z,100260.66
2019-03-20T14:14:16.439Z,100258.44
2019-03-20T14:16:47.748Z,100258.28
2019-03-20T14:19:20.742Z,100262.43
2019-03-20T14:21:54.029Z,100269.09
2019-03-20T14:24:25.717Z,100265.63
2019-03-20T14:27:02.198Z,100264.49
2019-03-20T14:29:33.509Z,100264.44
2019-03-20T14:32:04.860Z,100270.23
2019-03-20T14:34:36.155Z,100271.64
2019-03-20T14:37:07.550Z,100265.28
2019-03-20T14:39:38.958Z,100270.44
2019-03-20T14:42:10.308Z,100267.73
2019-03-20T14:44:42.712Z,100265.48
2019-03-20T14:47:14.092Z,100271.94
2019-03-20T14:49:45.582Z,100269.05
2019-03-20T14:52:16.812Z,100270.08
2019-03-20T14:54:48.182Z,100268.45
2019-03-20T14:57:19.476Z,100263.97
2019-03-20T14:59:50.866Z,100269.12
2019-03-20T15:02:22.177Z,100265.96
2019-03-20T15:04:53.511Z,100261.50
2019-03-20T15:07:24.964Z,100274.34
2019-03-20T15:09:56.398Z,100264.17
2019-03-20T15:12:27.726Z,100263.16
2019-03-20T15:14:59.191Z,100271.41
2019-03-20T15:17:30.503Z,100270.64
2019-03-20T15:20:02.020Z,100270.80
2019-03-20T15:22:33.323Z,100272.60
2019-03-20T15:25:07.083Z,100286.90
2019-03-20T15:27:38.338Z,100298.25
2019-03-20T15:30:18.835Z,100297.33
2019-03-20T15:32:50.140Z,100303.31
2019-03-20T15:35:21.550Z,100309.52
2019-03-20T15:37:52.903Z,100315.70
2019-03-20T15:40:26.387Z,100318.31
2019-03-20T15:42:57.780Z,100324.31
2019-03-20T15:45:29.094Z,100319.19
2019-03-20T15:48:00.503Z,100330.05
2019-03-20T15:50:31.855Z,100325.83
2019-03-20T15:53:03.134Z,100334.73
2019-03-20T15:55:39.575Z,100344.95
2019-03-20T15:58:10.847Z,100345.31
2019-03-20T16:00:42.202Z,100349.48
2019-03-20T16:03:23.506Z,100351.58
2019-03-20T16:05:55.595Z,100357.70
2019-03-20T16:08:26.952Z,100359.99
2019-03-20T16:11:06.169Z,100366.94
2019-03-20T16:13:36.366Z,100366.94
2019-03-20T16:16:19.956Z,100366.83
2019-03-20T16:18:53.047Z,100368.19
2019-03-20T16:21:24.455Z,100379.11
2019-03-20T16:23:55.713Z,100381.75
2019-03-20T16:26:27.141Z,100381.92
2019-03-20T16:28:58.339Z,100381.80
2019-03-20T16:31:29.788Z,100391.55
2019-03-20T16:34:01.233Z,100391.88
2019-03-20T16:36:32.632Z,100389.17
2019-03-20T16:39:05.549Z,100385.63
2019-03-20T16:41:36.877Z,100389.84
2019-03-20T16:44:08.192Z,100393.56
2019-03-20T16:46:39.599Z,100398.77
2019-03-20T16:49:10.868Z,100396.08
2019-03-20T16:51:42.264Z,100394.58
2019-03-20T16:54:13.591Z,100395.43
2019-03-20T16:56:44.921Z,100399.26
2019-03-20T16:59:16.286Z,100407.30
2019-03-20T17:01:47.653Z,100404.44
2019-03-20T17:04:19.107Z,100397.55
2019-03-20T17:06:50.504Z,100411.94
2019-03-20T17:09:21.877Z,100403.23
2019-03-20T17:11:53.351Z,100420.31
2019-03-20T17:14:24.698Z,100418.97
2019-03-20T17:16:56.164Z,100407.98
2019-03-20T17:19:27.584Z,100412.82
2019-03-20T17:21:58.953Z,100412.80
2019-03-20T17:24:31.348Z,100417.16
2019-03-20T17:27:02.770Z,100416.70
2019-03-20T17:29:34.092Z,100417.42
2019-03-20T17:32:05.503Z,100417.55
2019-03-20T17:34:36.892Z,100424.45
2019-03-20T17:37:08.280Z,100413.72
2019-03-20T17:39:39.641Z,100418.33
2019-03-20T17:42:10.983Z,100419.70
2019-03-20T17:44:42.370Z,100417.74
2019-03-20T17:47:13.784Z,100420.09
2019-03-20T17:49:45.196Z,100418.75
2019-03-20T17:52:16.593Z,100416.77
2019-03-20T17:54:47.951Z,100419.18
2019-03-20T17:57:19.373Z,100428.60
2019-03-20T17:59:50.706Z,100435.18
2019-03-20T18:02:24.249Z,100425.91
2019-03-20T18:04:55.132Z,100436.92
2019-03-20T18:07:26.526Z,100432.95
2019-03-20T18:09:57.922Z,100431.56
2019-03-20T18:12:29.266Z,100434.08
2019-03-20T18:15:00.631Z,100423.77
2019-03-20T18:17:33.296Z,100433.87
2019-03-20T18:20:07.430Z,100430.95
2019-03-20T18:22:38.724Z,100428.03
2019-03-20T18:25:12.832Z,100440.37
2019-03-20T18:27:44.217Z,100441.65
2019-03-20T18:30:27.006Z,100451.23
2019-03-20T18:32:58.377Z,100457.97
2019-03-20T18:35:29.785Z,100458.41
2019-03-20T18:38:01.221Z,100460.75
2019-03-20T18:40:32.629Z,100466.05
2019-03-20T18:43:03.967Z,100462.38
2019-03-20T18:45:35.342Z,100467.92
2019-03-20T18:48:06.676Z,100463.64
2019-03-20T18:50:39.327Z,100468.80
2019-03-20T18:53:11.646Z,100470.71
2019-03-20T18:55:43.053Z,100463.84
2019-03-20T18:58:14.389Z,100471.91
2019-03-20T19:00:45.790Z,100472.88
2019-03-20T19:03:25.791Z,100480.29
2019-03-20T19:06:06.517Z,100487.31
2019-03-20T19:08:37.880Z,100482.45
2019-03-20T19:11:09.398Z,100477.19
2019-03-20T19:13:40.763Z,100479.38
2019-03-20T19:16:12.085Z,100477.39
2019-03-20T19:18:43.521Z,100475.84
2019-03-20T19:21:14.902Z,100472.89
2019-03-20T19:23:46.512Z,100476.14
2019-03-20T19:26:17.809Z,100477.05
2019-03-20T19:28:49.233Z,100479.58
2019-03-20T19:31:20.621Z,100486.41
2019-03-20T19:33:52.096Z,100481.13
2019-03-20T19:36:23.415Z,100473.63
2019-03-20T19:38:54.794Z,100481.22
2019-03-20T19:41:26.178Z,100482.18
2019-03-20T19:43:57.572Z,100471.56
2019-03-20T19:46:28.915Z,100465.73
2019-03-20T19:49:00.339Z,100486.03
2019-03-20T19:51:31.717Z,100470.97
2019-03-20T19:54:04.779Z,100476.34
2019-03-20T19:56:36.161Z,100492.78
2019-03-20T19:59:07.527Z,100489.31
2019-03-20T20:01:38.959Z,100490.87
2019-03-20T20:04:10.365Z,100495.42
2019-03-20T20:06:41.829Z,100485.84
2019-03-20T20:09:13.244Z,100500.02
2019-03-20T20:11:44.635Z,100493.90
2019-03-20T20:14:16.100Z,100493.06
2019-03-20T20:16:47.534Z,100500.50
2019-03-20T20:19:18.886Z,100501.36
2019-03-20T20:21:50.152Z,100505.34
2019-03-20T20:24:21.547Z,100501.67
2019-03-20T20:26:52.834Z,100502.84
2019-03-20T20:29:24.186Z,100509.05
2019-03-20T20:31:55.523Z,100512.55
2019-03-20T20:34:26.936Z,100501.47
2019-03-20T20:36:58.278Z,100508.48
2019-03-20T20:39:29.646Z,100506.91
2019-03-20T20:42:00.932Z,100507.18
2019-03-20T20:44:32.253Z,100505.52
2019-03-20T20:47:04.038Z,100503.09
2019-03-20T20:49:35.348Z,100499.59
2019-03-20T20:52:06.664Z,100498.49
2019-03-20T20:54:38.056Z,100501.77
2019-03-20T20:57:09.419Z,100504.77
2019-03-20T20:59:40.733Z,100504.84
2019-03-20T21:02:12.098Z,100505.54
2019-03-20T21:04:43.523Z,100504.95
2019-03-20T21:07:14.918Z,100501.66
2019-03-20T21:09:46.338Z,100504.18
2019-03-20T21:12:17.776Z,100510.63
2019-03-20T21:14:49.175Z,100499.31
2019-03-20T21:17:23.682Z,100504.11
2019-03-20T21:19:55.011Z,100499.53
2019-03-20T21:22:35.371Z,100496.72
2019-03-20T21:25:06.796Z,100497.91
2019-03-20T21:28:03.702Z,100498.34
2019-03-20T21:30:50.001Z,100506.84
2019-03-20T21:33:33.432Z,100504.84
2019-03-20T21:36:39.523Z,100502.47
2019-03-20T21:39:11.051Z,100511.81
2019-03-20T21:42:11.458Z,100509.93
2019-03-20T21:45:02.528Z,100512.48
2019-03-20T21:47:33.634Z,100516.38
2019-03-20T21:50:27.329Z,100515.59
2019-03-20T21:52:58.639Z,100509.89
2019-03-20T21:55:49.720Z,100521.81
2019-03-20T21:58:27.000Z,100515.05
2019-03-20T22:01:27.276Z,100511.45
2019-03-20T22:03:58.501Z,100513.44
2019-03-20T22:06:54.273Z,100515.49
2019-03-20T22:09:34.600Z,100515.16
2019-03-20T22:12:30.230Z,100519.53
2019-03-20T22:15:13.644Z,100518.05
2019-03-20T22:18:09.454Z,100530.55
2019-03-20T22:20:56.138Z,100525.23
2019-03-20T22:23:33.569Z,100530.94
2019-03-20T22:26:25.976Z,100534.16
2019-03-20T22:29:24.849Z,100537.71
2019-03-20T22:32:07.951Z,100541.19
2019-03-20T22:35:00.392Z,100538.17
2019-03-20T22:37:31.835Z,100541.11
2019-03-20T22:40:15.086Z,100540.38
2019-03-20T22:43:13.362Z,100540.96
2019-03-20T22:46:02.741Z,100535.36
2019-03-20T22:48:56.430Z,100547.23
2019-03-20T22:51:47.457Z,100542.88
2019-03-20T22:54:41.426Z,100554.97
2019-03-20T22:57:28.956Z,100554.17
2019-03-20T23:00:00.409Z,100549.63
2019-03-20T23:02:37.608Z,100551.81
2019-03-20T23:05:10.748Z,100558.39
2019-03-20T23:07:42.127Z,100557.92
2019-03-20T23:10:16.435Z,100560.56
2019-03-20T23:12:49.647Z,100553.70
2019-03-20T23:15:22.182Z,100554.27
2019-03-20T23:17:53.507Z,100553.22
2019-03-20T23:20:27.804Z,100557.77
2019-03-20T23:22:59.218Z,100559.73
2019-03-20T23:25:30.480Z,100557.55
2019-03-20T23:28:01.903Z,100549.27
2019-03-20T23:30:36.327Z,100547.09
2019-03-20T23:33:07.730Z,100543.59
2019-03-20T23:35:39.128Z,100539.79
2019-03-20T23:38:10.444Z,100540.16
2019-03-20T23:40:41.838Z,100540.48
2019-03-20T23:43:14.443Z,100537.75
2019-03-20T23:45:45.721Z,100530.22
2019-03-20T23:48:32.171Z,100529.61
2019-03-20T23:51:06.617Z,100527.66
2019-03-20T23:53:39.131Z,100527.42
2019-03-20T23:56:10.577Z,100525.80
2019-03-20T23:58:41.973Z,100518.10
